Etusivu
METAR-TAF:

METAR-TAF

Lentoasemat :

Tukholma-Skavsta, Ruotsi

Skavstan lentoasema

Leveyspiiri: 58-47N, Pituuspiiri: 016-55E, korkeus merenpinnasta: 43 m

Tämänhetkinen sää

Tämä raportti tehtiin 21 minuuttia sitten, kello 12.20 UTC
Tuuli 5 kn lännestä, vaihdellen lännen/lounaan ja luoteen välillä
Lämpötila 10°C
Kosteus 62%
Ilmanpaine 1021 hPa
Näkyvyys 10 km tai enemmän
ei pilviä alle 1500 m:ssä eikä cumulonimbus-pilviä

METAR: ESKN 191220Z 28005KT 240V320 CAVOK 10/03 Q1021

Aika: 14:41 (12:41 UTC)

Sääennuste

Tämä raportti tehtiin 1 tunti ja 11 minuuttia sitten, kello 11.30 UTC
Ennuste voimassa 19. päivästä klo 12 UTC - 20. päivään klo 12 UTC
Tuuli 4 kn lännestä
Näkyvyys 10 km tai enemmän
ei pilviä alle 1500 m:ssä eikä cumulonimbus-pilviä
Todennäköisyys 40%
20. päivästä klo 01 UTC - 20. päivään klo 05 UTC
Näkyvyys: 2000 m
Matala sumu

TAF: ESKN 191130Z 1912/2012 28004KT CAVOK PROB40 2001/2005 2000 MIFG

Säähavainnot ja -ennusteet yli 4000 lentoasemalta (METAR- ja TAF-raportit).

Käytössä olevat sääasemat on merkitty karttaan keltaisilla ja punaisilla pisteillä.

Aseta hiiri pisteen päälle nähdäksesi sääaseman nimen.

Klikkaa sitten nähdäksesi säähavainnot ja -ennusteet.

Kartan vaihtaminen: klikkaa mustalla rastilla varustettuja vihreitä pisteitä, niin voit zoomata sisään; viivalla varustettua vihreää pistettä, niin voit zoomata ulos tai vihreitä nuolia, niin pääset viereisille kartoille.


METAR-TAF: